Time;durP1;ratioP1;P1;durP2;ratioP2;P2;SDS_P1;SDS_P2;PMS_P1;PMS_P2;Temp;Humidity;BMP_temperature;BMP_pressure;BME280_temperature;BME280_humidity;BME280_pressure;Samples;Min_cycle;Max_cycle;Signal;HPM_P1;HPM_P2
2023/03/24 00:00:10;;;;;;;14.93;7.15;;;;;;;13.66;49.53;98151.94;5016173;28;20123;-66
2023/03/24 00:02:40;;;;;;;14.23;8.20;;;;;;;13.74;49.72;98163.19;5016485;28;20528;-66
2023/03/24 00:05:27;;;;;;;13.68;7.00;;;;;;;13.94;49.65;98163.06;5016694;28;20045;-67
2023/03/24 00:07:53;;;;;;;12.75;6.75;;;;;;;13.38;49.86;98144.25;5016526;28;20473;-66
2023/03/24 00:10:21;;;;;;;12.10;6.85;;;;;;;13.56;50.14;98142.53;5016006;28;20034;-66
2023/03/24 00:12:47;;;;;;;13.98;8.27;;;;;;;13.61;49.81;98162.44;5019049;28;20045;-66
2023/03/24 00:15:17;;;;;;;13.43;7.05;;;;;;;13.87;49.92;98135.59;4987319;28;20375;-66
2023/03/24 00:17:45;;;;;;;13.83;7.40;;;;;;;13.79;49.63;98130.53;5035806;28;20041;-66
2023/03/24 00:20:13;;;;;;;14.63;7.30;;;;;;;13.91;49.87;98142.13;5019662;28;20053;-67
2023/03/24 00:22:48;;;;;;;10.75;6.80;;;;;;;13.79;49.48;98131.34;5019506;28;20471;-66
2023/03/24 00:25:16;;;;;;;10.35;6.95;;;;;;;13.89;49.74;98112.16;5003784;28;20045;-66
2023/03/24 00:27:43;;;;;;;10.00;6.72;;;;;;;13.61;49.59;98109.09;5003178;28;20041;-65
2023/03/24 00:30:11;;;;;;;10.25;6.40;;;;;;;13.84;49.74;98118.16;4986808;28;20182;-66
2023/03/24 00:32:37;;;;;;;10.50;7.07;;;;;;;13.60;49.63;98102.94;5019043;28;20091;-65
2023/03/24 00:35:09;;;;;;;10.43;6.90;;;;;;;14.03;49.72;98100.38;5017299;28;20119;-66
2023/03/24 00:37:36;;;;;;;10.98;7.78;;;;;;;13.83;49.62;98115.69;5016875;28;20055;-69
2023/03/24 00:40:09;;;;;;;12.75;7.20;;;;;;;13.91;50.09;98100.25;5017870;28;20254;-66
2023/03/24 00:42:35;;;;;;;13.23;7.22;;;;;;;13.66;49.83;98082.56;5018580;28;20102;-68
2023/03/24 00:45:04;;;;;;;14.55;6.95;;;;;;;13.88;49.88;98083.84;5001509;28;20474;-66
2023/03/24 00:47:35;;;;;;;11.57;6.85;;;;;;;13.74;50.03;98109.81;5002704;28;20049;-66
2023/03/24 00:50:10;;;;;;;11.55;6.93;;;;;;;14.02;49.92;98098.75;5052826;28;20037;-65
2023/03/24 00:52:36;;;;;;;16.10;7.18;;;;;;;13.43;50.09;98072.44;4986438;28;20044;-65
2023/03/24 00:55:05;;;;;;;10.77;7.60;;;;;;;13.86;50.31;98052.06;5035168;28;20363;-66
2023/03/24 00:57:34;;;;;;;12.20;7.72;;;;;;;13.65;50.28;98063.09;4986360;28;20045;-65
2023/03/24 01:00:11;;;;;;;12.75;7.22;;;;;;;13.88;50.07;98073.19;4986726;28;20068;-65
2023/03/24 01:02:37;;;;;;;13.48;7.50;;;;;;;13.72;49.82;98044.34;5019596;28;20052;-66
2023/03/24 01:05:04;;;;;;;10.48;6.97;;;;;;;13.54;50.07;98050.44;5002070;28;20395;-66
2023/03/24 01:07:30;;;;;;;11.07;7.15;;;;;;;13.53;49.93;98046.13;4986034;28;20071;-65
2023/03/24 01:09:56;;;;;;;11.07;6.95;;;;;;;13.70;50.53;98054.44;4985918;28;20076;-67
2023/03/24 01:12:24;;;;;;;11.85;7.88;;;;;;;13.76;50.36;98064.25;5018459;28;20048;-72
2023/03/24 01:14:51;;;;;;;12.43;7.43;;;;;;;13.44;50.52;98042.06;5052202;28;20091;-68
2023/03/24 01:17:18;;;;;;;11.57;7.47;;;;;;;13.73;50.27;98057.47;5018918;28;20052;-66
2023/03/24 01:19:44;;;;;;;11.85;7.50;;;;;;;13.72;49.93;98055.03;5018400;28;20044;-66
2023/03/24 01:22:11;;;;;;;10.82;7.00;;;;;;;13.53;49.87;98043.44;4985642;28;20048;-65
2023/03/24 01:24:37;;;;;;;12.43;7.90;;;;;;;13.58;49.88;98031.13;5001888;28;20052;-65
2023/03/24 01:27:03;;;;;;;10.30;7.32;;;;;;;13.60;49.98;98033.56;5018098;28;20105;-66
2023/03/24 01:29:29;;;;;;;13.32;7.90;;;;;;;13.59;49.95;98034.63;4984942;28;20475;-65
2023/03/24 01:31:55;;;;;;;17.27;7.82;;;;;;;13.64;49.86;98037.44;5001837;28;20037;-71
2023/03/24 01:34:22;;;;;;;12.80;7.75;;;;;;;13.59;49.84;98016.75;5034633;28;20102;-67
2023/03/24 01:36:48;;;;;;;13.68;8.48;;;;;;;13.52;50.24;98023.16;4986025;28;20128;-66
2023/03/24 01:39:14;;;;;;;12.15;7.50;;;;;;;13.61;50.10;98026.41;4985631;28;20056;-66
2023/03/24 01:41:40;;;;;;;13.30;7.93;;;;;;;13.70;49.62;98027.75;4985631;28;20044;-65
2023/03/24 01:44:26;;;;;;;10.95;7.35;;;;;;;14.24;50.14;98025.25;5017885;28;20051;-66
2023/03/24 01:46:53;;;;;;;11.05;7.40;;;;;;;13.93;49.89;98031.44;5017966;28;20040;-66
2023/03/24 01:49:19;;;;;;;12.13;7.38;;;;;;;14.00;49.58;98039.41;5017903;28;20049;-67
2023/03/24 01:51:47;;;;;;;11.85;7.55;;;;;;;14.18;49.56;98023.44;5018066;28;20049;-66
2023/03/24 01:54:20;;;;;;;13.90;7.60;;;;;;;14.26;49.46;98024.00;4985071;28;20044;-65
2023/03/24 01:57:12;;;;;;;13.65;8.50;;;;;;;14.06;50.30;98027.88;5018388;28;20068;-65
2023/03/24 01:59:42;;;;;;;13.30;8.23;;;;;;;14.04;50.05;98020.06;5001595;28;20446;-65
2023/03/24 02:02:21;;;;;;;;;;;;;;;14.34;49.78;98025.56;5003330;28;20076;-67
2023/03/24 02:05:01;;;;;;;14.68;8.35;;;;;;;14.21;49.83;98031.00;4987316;28;19947;-67
2023/03/24 02:08:12;;;;;;;13.65;8.27;;;;;;;14.41;49.85;98034.31;5018588;28;20057;-67
2023/03/24 02:10:38;;;;;;;16.83;8.40;;;;;;;13.82;50.02;98018.00;4922883;28;20109;-66
2023/03/24 02:13:05;;;;;;;13.50;8.45;;;;;;;13.81;50.03;98024.41;4907145;28;20082;-66
2023/03/24 02:15:33;;;;;;;13.10;8.50;;;;;;;14.10;50.36;98013.06;4923201;28;20085;-67
2023/03/24 02:18:35;;;;;;;13.18;8.57;;;;;;;14.24;50.34;98014.56;4939005;28;20054;-67
2023/03/24 02:21:20;;;;;;;14.43;8.43;;;;;;;14.19;50.31;98019.75;4984756;28;20100;-67
2023/03/24 02:23:53;;;;;;;18.27;8.10;;;;;;;14.21;50.47;98013.13;4984892;28;20040;-67
2023/03/24 02:26:35;;;;;;;14.43;7.90;;;;;;;14.41;50.37;98018.31;5017365;28;20052;-67
2023/03/24 02:29:10;;;;;;;13.57;8.15;;;;;;;14.35;50.52;97992.47;5017249;28;20049;-66
2023/03/24 02:32:07;;;;;;;19.00;8.48;;;;;;;14.47;50.35;98002.22;5033545;28;20095;-67
2023/03/24 02:34:58;;;;;;;10.82;7.70;;;;;;;14.39;50.15;97999.03;5000824;28;20040;-66
2023/03/24 02:37:26;;;;;;;17.00;8.57;;;;;;;13.98;49.81;97996.09;5001175;28;20533;-67
2023/03/24 02:39:57;;;;;;;13.13;9.07;;;;;;;14.43;49.90;98000.22;5000563;28;20060;-76
2023/03/24 02:42:48;;;;;;;14.52;8.82;;;;;;;14.52;49.98;97998.88;5004604;28;20041;-67
2023/03/24 02:45:57;;;;;;;14.88;8.60;;;;;;;14.47;49.87;97991.53;5010624;28;20041;-66
2023/03/24 02:48:33;;;;;;;18.02;9.48;;;;;;;14.46;49.92;97979.22;4954964;28;20070;-68
2023/03/24 02:51:23;;;;;;;16.63;9.32;;;;;;;14.47;50.16;97977.34;4923015;29;20066;-66
2023/03/24 02:54:10;;;;;;;12.70;8.20;;;;;;;14.45;50.50;97969.56;4922917;29;20043;-67
2023/03/24 02:56:57;;;;;;;18.67;9.77;;;;;;;14.34;50.44;97975.66;4922853;29;20050;-70
2023/03/24 02:59:49;;;;;;;18.67;10.15;;;;;;;14.46;50.37;97973.06;4937254;28;20058;-66
2023/03/24 03:02:38;;;;;;;17.00;9.70;;;;;;;14.36;50.42;97965.56;4952005;28;20089;-66
2023/03/24 03:05:36;;;;;;;15.88;10.23;;;;;;;14.54;50.16;97957.56;4956273;28;20130;-68
2023/03/24 03:08:05;;;;;;;15.35;9.30;;;;;;;14.26;50.66;97951.91;5001200;28;20056;-64
2023/03/24 03:10:34;;;;;;;17.63;8.93;;;;;;;14.41;50.64;97946.19;4968137;28;20048;-65
2023/03/24 03:13:03;;;;;;;16.13;8.75;;;;;;;14.35;50.48;97955.91;5016865;28;20116;-64
2023/03/24 03:15:34;;;;;;;16.40;9.48;;;;;;;14.42;50.60;97951.31;4984478;28;20052;-64
2023/03/24 03:18:16;;;;;;;13.70;9.32;;;;;;;14.36;50.65;97936.19;5016957;28;20053;-67
2023/03/24 03:20:49;;;;;;;12.50;8.93;;;;;;;14.32;50.91;97944.84;4984421;28;20147;-66
2023/03/24 03:23:25;;;;;;;17.45;9.57;;;;;;;14.49;50.79;97936.03;5018044;28;20132;-65
2023/03/24 03:26:11;;;;;;;17.92;9.35;;;;;;;14.37;50.73;97943.16;5018495;28;20049;-67
2023/03/24 03:28:40;;;;;;;14.30;9.20;;;;;;;14.33;50.90;97930.50;5018157;28;20049;-64
2023/03/24 03:31:09;;;;;;;14.30;9.13;;;;;;;14.26;51.00;97927.88;5000409;28;20494;-64
2023/03/24 03:33:43;;;;;;;16.65;9.00;;;;;;;14.41;50.72;97922.97;5033116;28;20127;-65
2023/03/24 03:56:53;;;;;;;17.52;10.30;;;;;;;14.10;51.46;97933.78;5031240;28;20064;-62
2023/03/24 03:59:26;;;;;;;16.30;10.20;;;;;;;14.03;51.19;97919.69;4984545;28;20502;-62
2023/03/24 04:01:53;;;;;;;19.08;11.10;;;;;;;13.99;51.45;97925.69;5000077;28;20123;-63
2023/03/24 04:04:57;;;;;;;14.93;10.38;;;;;;;13.93;51.81;97931.91;4972140;28;20495;-64
2023/03/24 04:08:20;;;;;;;16.95;10.65;;;;;;;14.77;51.41;97922.13;5002973;28;20060;-63
2023/03/24 04:11:08;;;;;;;17.90;10.50;;;;;;;14.67;51.31;97914.63;5000895;28;20434;-63
2023/03/24 04:13:59;;;;;;;16.80;10.30;;;;;;;14.12;51.04;97907.69;5015729;28;20057;-63
2023/03/24 04:17:04;;;;;;;16.42;10.85;;;;;;;14.65;51.91;97900.69;5016283;28;20136;-64
2023/03/24 04:19:43;;;;;;;17.40;10.13;;;;;;;14.03;52.37;97917.03;4999813;28;20076;-64
2023/03/24 04:22:25;;;;;;;19.45;11.63;;;;;;;14.41;53.87;97900.78;4983602;28;20049;-64
2023/03/24 04:25:43;;;;;;;17.05;10.65;;;;;;;14.58;54.44;97907.97;5017919;28;20057;-63
2023/03/24 04:28:25;;;;;;;16.23;10.90;;;;;;;14.39;55.42;97905.56;5032589;28;20136;-64
2023/03/24 04:31:00;;;;;;;20.67;11.50;;;;;;;14.24;56.64;97900.59;5015759;28;20132;-63
2023/03/24 04:33:39;;;;;;;18.92;11.18;;;;;;;14.29;57.55;97895.41;5015830;28;20103;-63
2023/03/24 04:36:18;;;;;;;19.00;12.18;;;;;;;14.38;58.22;97885.22;4999098;28;20045;-65
2023/03/24 04:39:12;;;;;;;17.65;10.80;;;;;;;14.21;58.28;97884.16;5017385;28;20065;-65
2023/03/24 04:41:46;;;;;;;21.10;12.43;;;;;;;13.77;59.47;97874.59;5000017;28;20049;-65
2023/03/24 04:44:21;;;;;;;18.83;11.82;;;;;;;13.87;59.09;97877.56;5000798;28;20053;-62
2023/03/24 04:47:07;;;;;;;19.25;12.02;;;;;;;13.62;59.81;97881.31;5002886;28;20153;-64
2023/03/24 04:49:40;;;;;;;17.48;12.27;;;;;;;14.24;60.72;97884.56;4999553;28;20092;-62
2023/03/24 04:52:06;;;;;;;19.35;12.23;;;;;;;13.84;60.54;97887.88;4967126;28;20083;-63
2023/03/24 04:54:33;;;;;;;19.85;12.50;;;;;;;13.80;61.05;97884.81;5015928;28;20045;-63
2023/03/24 04:57:04;;;;;;;23.02;14.77;;;;;;;13.69;63.40;97879.38;4999915;28;20049;-63
2023/03/24 04:59:43;;;;;;;21.40;13.65;;;;;;;13.51;63.04;97891.66;5000879;28;20174;-64
2023/03/24 05:02:09;;;;;;;22.58;14.65;;;;;;;13.70;64.18;97889.03;4999097;28;20128;-64
2023/03/24 05:04:54;;;;;;;20.77;13.85;;;;;;;13.65;64.71;97888.88;4984868;28;20045;-63
2023/03/24 05:07:41;;;;;;;46.08;19.02;;;;;;;13.52;67.89;97898.63;4997197;28;20053;-63
2023/03/24 05:10:11;;;;;;;27.05;16.30;;;;;;;13.19;69.80;97890.06;4999420;28;20491;-63
2023/03/24 05:12:45;;;;;;;30.58;17.30;;;;;;;13.08;70.47;97892.63;4984893;28;20053;-63
2023/03/24 05:15:26;;;;;;;31.85;17.40;;;;;;;13.20;72.41;97897.06;5002925;28;20060;-64
2023/03/24 05:17:58;;;;;;;33.08;18.27;;;;;;;13.17;72.27;97900.16;4983006;28;20084;-64
2023/03/24 05:20:25;;;;;;;37.00;19.63;;;;;;;13.16;77.17;97879.84;4966731;28;20434;-64
2023/03/24 05:22:51;;;;;;;35.47;20.38;;;;;;;13.04;77.10;97886.91;4982427;28;20495;-64
2023/03/24 05:25:18;;;;;;;32.08;19.80;;;;;;;13.13;74.89;97896.28;4998556;28;20037;-64
2023/03/24 05:27:44;;;;;;;33.80;19.90;;;;;;;12.86;74.73;97896.63;4998812;28;20052;-64
2023/03/24 05:30:24;;;;;;;36.55;21.02;;;;;;;12.92;74.43;97903.75;4984373;28;20099;-64
2023/03/24 05:32:57;;;;;;;35.65;21.52;;;;;;;12.82;74.84;97904.22;4982883;28;20065;-64
2023/03/24 05:35:23;;;;;;;39.22;22.02;;;;;;;13.06;74.87;97866.19;4982408;28;20380;-64
2023/03/24 05:37:49;;;;;;;41.08;22.55;;;;;;;13.11;74.66;97887.69;5014767;28;20132;-64
2023/03/24 05:40:16;;;;;;;38.17;21.33;;;;;;;12.86;75.69;97893.97;4998627;28;20045;-65
2023/03/24 05:42:52;;;;;;;42.22;22.67;;;;;;;13.09;75.92;97896.91;4983711;28;20060;-64
2023/03/24 05:45:19;;;;;;;33.47;21.38;;;;;;;12.85;75.53;97895.84;5014623;28;20037;-64
2023/03/24 05:47:46;;;;;;;45.83;23.95;;;;;;;13.36;76.07;97906.38;5014816;28;20376;-64
2023/03/24 05:50:11;;;;;;;44.92;23.23;;;;;;;13.05;75.16;97901.06;4998273;28;20068;-64
2023/03/24 05:52:37;;;;;;;42.28;24.10;;;;;;;13.24;75.61;97887.59;4982281;28;20049;-64
2023/03/24 05:55:22;;;;;;;35.55;20.48;;;;;;;13.11;75.32;97895.69;5030957;28;20046;-65
2023/03/24 05:57:57;;;;;;;40.88;22.60;;;;;;;13.21;75.39;97898.69;4999499;28;20479;-65
2023/03/24 06:00:32;;;;;;;41.05;24.10;;;;;;;13.37;75.10;97897.31;4983332;28;20041;-64
2023/03/24 06:03:06;;;;;;;40.63;23.08;;;;;;;13.30;75.12;97909.88;4999472;28;20041;-64
2023/03/24 06:05:41;;;;;;;42.53;24.05;;;;;;;13.40;75.67;97902.22;4983090;28;20468;-66
2023/03/24 06:08:08;;;;;;;40.10;23.38;;;;;;;13.46;75.28;97888.00;4998622;28;20049;-64
2023/03/24 06:10:36;;;;;;;40.40;22.70;;;;;;;13.36;74.67;97906.38;4998821;28;20487;-64
2023/03/24 06:13:02;;;;;;;40.83;23.08;;;;;;;13.32;75.93;97884.66;5006614;28;20065;-64
2023/03/24 06:15:30;;;;;;;37.88;22.80;;;;;;;13.25;75.50;97889.19;4960645;28;20137;-64
2023/03/24 06:18:07;;;;;;;41.40;22.77;;;;;;;13.50;75.00;97889.19;4981098;28;20046;-64
2023/03/24 06:20:34;;;;;;;35.67;21.50;;;;;;;13.47;74.33;97898.47;4979409;28;20473;-64
2023/03/24 06:23:10;;;;;;;38.97;22.42;;;;;;;13.46;74.71;97896.00;4964738;28;20484;-63
2023/03/24 06:26:08;;;;;;;41.20;22.10;;;;;;;13.54;79.27;97869.06;4981222;28;20062;-63
2023/03/24 06:28:34;;;;;;;42.05;24.50;;;;;;;13.44;77.90;97885.56;4979298;28;20038;-62
2023/03/24 06:31:06;;;;;;;50.80;25.38;;;;;;;13.26;77.81;97874.84;4980077;28;20092;-63
2023/03/24 06:33:34;;;;;;;48.88;24.23;;;;;;;13.17;79.18;97888.66;4995595;28;20057;-63
2023/03/24 06:36:01;;;;;;;43.17;21.58;;;;;;;13.06;78.59;97887.53;4978787;28;20049;-63
2023/03/24 06:38:29;;;;;;;51.00;27.13;;;;;;;13.22;79.21;97886.19;4995439;28;20068;-63
2023/03/24 06:41:00;;;;;;;49.63;25.98;;;;;;;13.76;79.42;97888.16;4978906;28;20077;-64
2023/03/24 06:43:26;;;;;;;47.25;25.33;;;;;;;13.09;78.80;97895.09;5011331;28;20046;-63
2023/03/24 06:45:52;;;;;;;49.38;25.63;;;;;;;13.26;78.75;97885.53;4994686;28;20090;-63
2023/03/24 06:48:22;;;;;;;52.78;26.88;;;;;;;13.48;78.78;97897.41;4978779;28;20046;-63
2023/03/24 06:50:51;;;;;;;57.10;27.48;;;;;;;13.77;79.09;97887.09;4979207;28;20502;-63
2023/03/24 06:53:17;;;;;;;48.00;26.98;;;;;;;13.33;77.96;97898.81;4978425;28;20050;-65
2023/03/24 06:55:43;;;;;;;47.75;25.33;;;;;;;13.51;77.76;97885.50;4978617;28;20052;-66
2023/03/24 06:58:10;;;;;;;47.40;24.58;;;;;;;13.55;77.39;97889.38;4979034;28;20043;-64
2023/03/24 07:00:59;;;;;;;48.03;24.95;;;;;;;13.90;77.62;97893.13;4981187;28;20516;-64
2023/03/24 07:03:37;;;;;;;43.97;22.92;;;;;;;13.63;76.70;97885.59;4996044;28;20378;-64
2023/03/24 07:06:25;;;;;;;47.90;24.40;;;;;;;13.89;76.08;97898.69;4981356;28;20168;-65
2023/03/24 07:08:54;;;;;;;50.75;24.75;;;;;;;13.93;75.61;97897.22;4978828;28;20463;-64
2023/03/24 07:11:23;;;;;;;44.17;25.00;;;;;;;13.83;75.67;97883.56;4978879;28;20117;-64
2023/03/24 07:13:55;;;;;;;39.45;21.15;;;;;;;13.59;75.87;97895.91;4978224;28;20062;-64
2023/03/24 07:16:22;;;;;;;40.00;22.73;;;;;;;13.57;76.38;97884.63;4978319;28;20132;-64
2023/03/24 07:18:56;;;;;;;45.60;23.00;;;;;;;13.83;76.57;97902.22;4994298;28;20038;-65
2023/03/24 07:21:21;;;;;;;38.17;21.20;;;;;;;13.73;75.39;97888.59;4994396;28;20050;-64
2023/03/24 07:23:49;;;;;;;39.60;21.85;;;;;;;13.74;76.59;97892.88;4978438;28;20080;-64
2023/03/24 07:26:18;;;;;;;38.50;21.13;;;;;;;13.69;76.41;97896.22;4993892;28;20522;-67
2023/03/24 07:28:56;;;;;;;33.10;19.25;;;;;;;13.49;76.14;97896.41;4978938;28;20465;-65
2023/03/24 07:31:47;;;;;;;35.78;20.02;;;;;;;13.60;77.04;97886.88;4951193;28;20109;-67
2023/03/24 07:34:14;;;;;;;36.42;20.73;;;;;;;13.82;76.75;97898.78;5006351;28;20066;-64
2023/03/24 07:36:40;;;;;;;37.55;20.58;;;;;;;13.86;76.10;97894.63;4994276;28;20088;-65
2023/03/24 07:39:12;;;;;;;29.58;17.42;;;;;;;13.78;75.55;97894.09;4994201;28;20092;-64
2023/03/24 07:41:38;;;;;;;29.98;18.30;;;;;;;13.65;76.17;97880.88;4978005;28;20038;-64
2023/03/24 07:44:12;;;;;;;24.77;15.80;;;;;;;13.56;77.53;97891.03;4979051;28;20484;-64
2023/03/24 07:46:48;;;;;;;32.90;17.85;;;;;;;13.70;76.44;97897.03;4963008;28;20546;-65
2023/03/24 07:49:14;;;;;;;25.63;16.25;;;;;;;13.54;76.94;97895.75;4961905;28;20045;-64
2023/03/24 07:51:40;;;;;;;29.52;17.27;;;;;;;13.58;77.77;97886.25;4994038;28;20042;-64
2023/03/24 07:54:28;;;;;;;27.33;15.75;;;;;;;13.72;76.27;97895.78;4964790;28;20054;-64
2023/03/24 07:56:55;;;;;;;25.20;15.10;;;;;;;13.31;76.92;97890.19;4977931;28;20077;-64
2023/03/24 07:59:22;;;;;;;24.05;15.07;;;;;;;13.53;77.77;97908.25;4993978;28;20057;-66
2023/03/24 08:01:51;;;;;;;28.08;16.52;;;;;;;13.77;77.53;97909.28;4993576;28;20046;-64
2023/03/24 08:04:22;;;;;;;25.08;15.48;;;;;;;13.73;77.58;97912.59;4994130;28;20144;-64
2023/03/24 08:07:08;;;;;;;25.67;15.18;;;;;;;13.75;76.51;97902.50;4979653;28;20065;-64
2023/03/24 08:09:36;;;;;;;29.40;15.77;;;;;;;13.67;76.56;97914.28;4993652;28;20144;-64
2023/03/24 08:12:02;;;;;;;22.27;13.68;;;;;;;13.61;76.67;97922.38;4993110;28;20144;-64
2023/03/24 08:14:28;;;;;;;23.17;13.38;;;;;;;13.51;77.50;97910.31;4996639;28;20058;-64
2023/03/24 08:16:54;;;;;;;22.52;14.13;;;;;;;13.38;78.09;97912.28;5012740;28;20461;-64
2023/03/24 08:19:20;;;;;;;21.95;13.90;;;;;;;13.30;78.67;97912.53;5012856;28;20479;-63
2023/03/24 08:21:46;;;;;;;20.80;12.82;;;;;;;13.48;77.87;97921.41;5013152;28;20077;-63
2023/03/24 08:24:12;;;;;;;25.10;14.18;;;;;;;13.72;77.54;97909.13;5012766;28;20052;-64
2023/03/24 08:26:39;;;;;;;21.73;12.95;;;;;;;13.84;76.19;97902.00;4964107;28;20104;-64
2023/03/24 08:29:04;;;;;;;32.33;15.02;;;;;;;13.88;76.31;97918.41;5012813;28;20111;-63
2023/03/24 08:31:35;;;;;;;22.20;12.82;;;;;;;14.42;75.50;97929.16;4964194;28;20050;-63
2023/03/24 08:34:05;;;;;;;19.98;12.40;;;;;;;14.16;75.02;97921.41;5028965;28;20046;-63
2023/03/24 08:36:31;;;;;;;26.15;13.98;;;;;;;14.08;75.45;97927.03;5029223;28;20045;-63
2023/03/24 08:38:57;;;;;;;21.85;14.32;;;;;;;13.95;74.40;97916.47;4995753;28;20467;-63
2023/03/24 08:41:29;;;;;;;16.80;11.82;;;;;;;13.90;75.26;97925.16;4996606;28;20045;-64
2023/03/24 08:43:55;;;;;;;16.77;10.90;;;;;;;14.07;74.86;97934.22;4980765;28;20053;-64
2023/03/24 08:46:22;;;;;;;17.58;10.80;;;;;;;14.12;74.25;97920.19;4979930;28;20496;-64
2023/03/24 08:48:47;;;;;;;13.05;8.82;;;;;;;14.25;73.45;97928.94;5012283;28;20056;-63
2023/03/24 08:51:15;;;;;;;13.90;9.48;;;;;;;13.96;75.48;97931.47;5012401;28;20431;-63
2023/03/24 08:53:42;;;;;;;15.80;9.40;;;;;;;14.03;74.82;97924.19;5012182;28;20079;-64
2023/03/24 08:56:08;;;;;;;15.00;10.00;;;;;;;14.16;74.01;97932.88;5012367;28;20061;-63
2023/03/24 08:58:35;;;;;;;12.82;8.45;;;;;;;14.16;73.44;97924.88;5012281;28;20072;-65
2023/03/24 09:01:01;;;;;;;14.48;9.57;;;;;;;14.25;74.00;97936.13;5011943;28;20052;-64
2023/03/24 09:03:27;;;;;;;13.70;9.15;;;;;;;14.38;72.86;97922.59;4979711;28;20472;-63
2023/03/24 09:05:57;;;;;;;10.82;7.72;;;;;;;14.75;72.50;97942.91;5011864;28;20049;-64
2023/03/24 09:08:23;;;;;;;9.45;6.57;;;;;;;14.23;71.91;97944.31;4979748;28;20053;-64
2023/03/24 09:10:50;;;;;;;11.88;7.60;;;;;;;14.33;71.45;97931.28;5012345;28;20053;-64
2023/03/24 09:13:16;;;;;;;9.40;7.15;;;;;;;14.63;72.16;97937.50;5005537;28;20297;-64
2023/03/24 09:15:50;;;;;;;8.98;6.65;;;;;;;14.85;72.49;97937.84;4976334;28;20494;-64
2023/03/24 09:18:19;;;;;;;9.40;6.90;;;;;;;14.68;72.11;97940.31;4992250;28;20467;-64
2023/03/24 09:20:45;;;;;;;10.05;7.18;;;;;;;14.63;71.72;97948.19;4992187;28;20385;-64
2023/03/24 09:23:11;;;;;;;8.07;6.50;;;;;;;14.11;72.07;97942.59;4959733;28;20910;-63
2023/03/24 09:25:37;;;;;;;11.05;6.82;;;;;;;14.37;73.22;97947.69;4992148;28;20048;-63
2023/03/24 09:28:03;;;;;;;11.93;6.60;;;;;;;14.43;72.48;97941.44;4975957;28;20054;-64
2023/03/24 09:30:30;;;;;;;10.90;7.22;;;;;;;14.73;71.31;97943.13;4960149;28;20042;-64
2023/03/24 09:32:57;;;;;;;11.60;7.03;;;;;;;14.84;70.91;97950.38;4975879;28;20061;-64
2023/03/24 09:35:26;;;;;;;7.40;5.82;;;;;;;15.02;70.29;97954.88;4976332;28;20046;-64
2023/03/24 09:37:52;;;;;;;5.63;4.70;;;;;;;14.89;70.12;97952.38;4993171;28;20515;-63
2023/03/24 09:40:30;;;;;;;8.00;6.47;;;;;;;15.31;71.10;97951.38;4975895;28;20038;-64
2023/03/24 09:43:03;;;;;;;9.52;5.88;;;;;;;15.54;69.92;97955.97;4975765;28;20042;-65
2023/03/24 09:45:33;;;;;;;7.90;5.70;;;;;;;15.61;69.75;97956.69;5008117;28;20129;-64
2023/03/24 09:48:00;;;;;;;9.13;5.18;;;;;;;15.17;68.18;97960.63;4959493;28;20053;-64
2023/03/24 09:50:35;;;;;;;7.43;4.93;;;;;;;15.57;68.80;97967.06;4974764;28;20533;-64
2023/03/24 09:53:09;;;;;;;8.63;4.57;;;;;;;15.24;68.86;97970.19;4992005;28;20042;-63
2023/03/24 09:55:36;;;;;;;8.10;4.53;;;;;;;15.20;70.25;97963.69;4975786;28;20042;-64
2023/03/24 09:58:07;;;;;;;9.55;5.25;;;;;;;15.43;69.72;97962.94;4975742;28;20054;-64
2023/03/24 10:00:33;;;;;;;5.90;4.47;;;;;;;15.24;69.42;97962.16;4991735;28;20132;-64
2023/03/24 10:03:20;;;;;;;5.78;4.28;;;;;;;15.78;68.62;97969.16;4975669;28;20057;-63
2023/03/24 10:06:09;;;;;;;4.25;3.53;;;;;;;15.62;68.15;97974.38;4975380;28;20073;-64
2023/03/24 10:08:43;;;;;;;4.35;3.78;;;;;;;15.52;68.55;97974.94;4991472;28;20038;-62
2023/03/24 10:11:38;;;;;;;6.00;3.78;;;;;;;15.58;68.70;97983.91;4975398;28;20526;-64
2023/03/24 10:14:10;;;;;;;6.10;3.83;;;;;;;15.43;69.01;97980.84;4975407;28;20069;-63
2023/03/24 10:17:03;;;;;;;6.97;4.63;;;;;;;15.58;68.15;97978.53;4992581;28;20054;-63
2023/03/24 10:19:50;;;;;;;6.07;3.40;;;;;;;15.44;68.70;97980.63;4984824;28;20045;-64
2023/03/24 10:22:36;;;;;;;8.50;4.38;;;;;;;15.58;67.74;97989.25;5011783;28;20091;-64
2023/03/24 10:25:09;;;;;;;6.40;4.05;;;;;;;15.26;69.02;97975.31;5012387;28;20375;-64
2023/03/24 10:27:40;;;;;;;8.13;4.07;;;;;;;15.11;69.78;97982.94;4996481;28;20048;-63
2023/03/24 10:30:30;;;;;;;5.88;3.65;;;;;;;15.38;69.12;97994.91;5029242;28;20033;-66
2023/03/24 10:33:01;;;;;;;6.63;3.72;;;;;;;15.21;69.29;97988.53;4993431;28;20049;-67
2023/03/24 10:35:35;;;;;;;4.88;3.60;;;;;;;15.09;68.84;97990.34;4993986;28;20167;-64
2023/03/24 10:38:14;;;;;;;4.75;3.58;;;;;;;14.98;68.90;97991.94;4957396;28;20046;-65
2023/03/24 10:40:41;;;;;;;4.20;3.20;;;;;;;14.81;68.19;97987.44;5008215;28;20591;-65
2023/03/24 10:43:07;;;;;;;4.20;3.28;;;;;;;14.83;68.26;97991.53;4991829;28;20393;-64
2023/03/24 10:45:35;;;;;;;3.75;3.35;;;;;;;14.78;68.46;97985.19;4957652;28;20132;-65
2023/03/24 10:48:06;;;;;;;4.78;3.65;;;;;;;15.04;68.35;97999.06;5008067;28;20037;-65
2023/03/24 10:50:34;;;;;;;4.95;4.25;;;;;;;15.03;68.11;98007.31;4992014;28;20065;-65
2023/03/24 10:53:07;;;;;;;5.55;4.00;;;;;;;15.59;67.66;98005.06;4975930;28;20050;-64
2023/03/24 10:55:38;;;;;;;4.45;3.72;;;;;;;15.44;66.60;98010.03;4991270;28;20404;-63
2023/03/24 10:58:06;;;;;;;;;;;;;;;15.78;65.15;98017.34;4977206;28;20141;-64
2023/03/24 11:00:33;;;;;;;4.00;2.97;;;;;;;15.58;65.23;98006.13;5000832;28;19932;-63
2023/03/24 11:03:09;;;;;;;5.22;3.40;;;;;;;15.93;64.39;98014.25;4968360;28;20397;-64
2023/03/24 11:05:37;;;;;;;5.35;3.90;;;;;;;15.77;64.30;98010.38;4977212;28;20042;-63
2023/03/24 11:08:16;;;;;;;5.00;3.67;;;;;;;16.00;63.45;98002.38;4960886;28;20553;-60
2023/03/24 11:10:42;;;;;;;6.18;3.30;;;;;;;15.69;63.39;98020.59;4976844;28;20050;-65
2023/03/24 11:13:25;;;;;;;6.13;3.90;;;;;;;16.18;62.64;98018.31;4959420;28;20061;-66
2023/03/24 11:16:12;;;;;;;5.43;4.25;;;;;;;16.41;61.86;98033.56;4993605;28;20495;-64
2023/03/24 11:19:00;;;;;;;6.38;4.40;;;;;;;16.34;61.67;98027.53;4960747;28;20061;-65
2023/03/24 11:21:39;;;;;;;6.43;3.90;;;;;;;16.07;61.82;98029.84;4976731;28;20120;-66
2023/03/24 11:24:15;;;;;;;7.03;3.50;;;;;;;16.32;62.06;98030.44;4992687;28;20381;-65
2023/03/24 11:26:54;;;;;;;7.80;3.65;;;;;;;16.50;60.74;98038.38;4975375;28;20053;-64
2023/03/24 11:29:23;;;;;;;5.43;3.58;;;;;;;16.29;59.40;98046.16;4960933;28;20159;-65
2023/03/24 11:31:55;;;;;;;9.45;3.80;;;;;;;16.52;59.42;98040.81;4983352;28;20085;-65
2023/03/24 11:34:37;;;;;;;3.40;3.10;;;;;;;16.93;58.18;98045.22;4997226;28;20492;-64
2023/03/24 11:37:16;;;;;;;4.95;3.40;;;;;;;17.22;57.71;98055.72;5013495;28;20108;-63
2023/03/24 11:39:43;;;;;;;5.63;2.90;;;;;;;17.24;55.19;98047.44;5013357;28;20061;-63
2023/03/24 11:42:09;;;;;;;5.72;3.55;;;;;;;17.32;53.91;98063.16;4992861;28;20061;-66
2023/03/24 11:44:38;;;;;;;6.10;3.38;;;;;;;18.00;52.69;98061.22;4980420;28;20038;-66
2023/03/24 11:47:12;;;;;;;3.40;3.10;;;;;;;18.09;51.97;98049.84;4979259;28;20077;-66
2023/03/24 11:49:45;;;;;;;5.45;2.95;;;;;;;17.89;51.60;98059.41;4980053;28;20133;-66
2023/03/24 11:52:21;;;;;;;7.07;3.00;;;;;;;18.41;50.82;98048.22;4980205;28;20046;-66
2023/03/24 11:54:47;;;;;;;4.10;3.17;;;;;;;18.54;49.31;98057.81;5012779;28;20075;-66
2023/03/24 11:57:14;;;;;;;5.85;3.50;;;;;;;18.54;47.74;98063.19;4979076;28;20407;-67
2023/03/24 11:59:51;;;;;;;4.93;3.65;;;;;;;18.97;48.60;98063.25;4996371;28;20054;-66
2023/03/24 12:02:41;;;;;;;5.55;3.50;;;;;;;18.83;48.33;98070.06;4995554;28;20283;-68
2023/03/24 12:05:42;;;;;;;5.72;3.45;;;;;;;18.63;48.49;98060.88;4950181;28;20115;-68
2023/03/24 12:08:16;;;;;;;5.45;4.03;;;;;;;17.89;50.77;98060.25;4884736;29;20585;-66
2023/03/24 12:11:01;;;;;;;7.13;4.00;;;;;;;18.05;50.37;98066.69;4887037;29;20130;-66
2023/03/24 12:13:31;;;;;;;4.88;3.55;;;;;;;17.57;50.60;98077.94;4925393;29;20160;-66